createdAt,value
2023-02-13T00:02:24.216Z,103812.25
2023-02-13T00:04:50.716Z,103808.81
2023-02-13T00:07:17.182Z,103800.88
2023-02-13T00:09:43.641Z,103806.28
2023-02-13T00:12:10.354Z,103810.78
2023-02-13T00:14:38.493Z,103802.13
2023-02-13T00:17:06.034Z,103799.72
2023-02-13T00:19:33.017Z,103798.00
2023-02-13T00:21:59.504Z,103795.19
2023-02-13T00:24:26.132Z,103794.34
2023-02-13T00:26:52.514Z,103800.16
2023-02-13T00:29:19.037Z,103796.38
2023-02-13T00:31:45.707Z,103790.97
2023-02-13T00:34:13.869Z,103788.16
2023-02-13T00:36:40.352Z,103789.88
2023-02-13T00:39:06.736Z,103787.03
2023-02-13T00:41:33.173Z,103778.53
2023-02-13T00:43:59.648Z,103785.28
2023-02-13T00:46:26.232Z,103788.31
2023-02-13T00:48:53.118Z,103785.78
2023-02-13T00:51:19.643Z,103781.25
2023-02-13T00:53:46.050Z,103776.97
2023-02-13T00:56:14.687Z,103780.66
2023-02-13T00:58:44.363Z,103774.56
2023-02-13T01:01:11.012Z,103775.41
2023-02-13T01:03:37.570Z,103775.53
2023-02-13T01:06:04.339Z,103782.38
2023-02-13T01:08:31.306Z,103780.16
2023-02-13T01:10:58.052Z,103779.91
2023-02-13T01:13:24.981Z,103786.00
2023-02-13T01:15:53.424Z,103781.34
2023-02-13T01:18:20.720Z,103784.16
2023-02-13T01:21:03.418Z,103784.06
2023-02-13T01:23:32.685Z,103783.59
2023-02-13T01:26:00.159Z,103785.44
2023-02-13T01:28:26.813Z,103786.53
2023-02-13T01:30:58.276Z,103776.97
2023-02-13T01:33:27.029Z,103772.59
2023-02-13T01:35:53.867Z,103773.44
2023-02-13T01:38:20.596Z,103765.50
2023-02-13T01:40:54.433Z,103771.88
2023-02-13T01:43:23.511Z,103772.84
2023-02-13T01:45:54.478Z,103772.50
2023-02-13T01:48:25.326Z,103769.53
2023-02-13T01:51:06.514Z,103770.66
2023-02-13T01:53:59.923Z,103761.84
2023-02-13T01:56:33.618Z,103762.09
2023-02-13T01:59:09.394Z,103763.53
2023-02-13T02:01:37.136Z,103766.00
2023-02-13T02:04:12.246Z,103764.16
2023-02-13T02:06:44.155Z,103750.72
2023-02-13T02:09:17.195Z,103751.06
2023-02-13T02:12:05.531Z,103754.88
2023-02-13T02:14:35.706Z,103754.03
2023-02-13T02:17:06.226Z,103762.94
2023-02-13T02:19:49.370Z,103751.34
2023-02-13T02:22:53.700Z,103752.19
2023-02-13T02:25:38.764Z,103748.41
2023-02-13T02:28:37.721Z,103757.69
2023-02-13T02:31:23.220Z,103749.38
2023-02-13T02:33:58.782Z,103762.09
2023-02-13T02:36:46.947Z,103754.13
2023-02-13T02:39:20.849Z,103755.72
2023-02-13T02:42:13.608Z,103740.69
2023-02-13T02:44:58.334Z,103751.06
2023-02-13T02:47:49.469Z,103740.84
2023-02-13T02:50:25.524Z,103748.19
2023-02-13T02:52:55.009Z,103739.88
2023-02-13T02:55:36.496Z,103747.66
2023-02-13T02:58:55.709Z,103742.53
2023-02-13T03:01:47.457Z,103744.97
2023-02-13T03:04:45.373Z,103736.44
2023-02-13T03:07:16.400Z,103745.25
2023-02-13T03:10:07.266Z,103727.53
2023-02-13T03:12:59.086Z,103733.25
2023-02-13T03:15:27.305Z,103740.59
2023-02-13T03:18:12.897Z,103745.69
2023-02-13T03:21:24.141Z,103736.91
2023-02-13T03:24:00.966Z,103742.28
2023-02-13T03:26:50.117Z,103742.53
2023-02-13T03:29:57.264Z,103741.44
2023-02-13T03:32:36.781Z,103745.22
2023-02-13T03:35:43.546Z,103743.00
2023-02-13T03:38:31.991Z,103742.75
2023-02-13T03:41:19.379Z,103737.38
2023-02-13T03:44:09.752Z,103741.91
2023-02-13T03:46:39.997Z,103741.75
2023-02-13T03:49:26.975Z,103743.00
2023-02-13T03:52:01.879Z,103739.25
2023-02-13T03:54:55.776Z,103739.59
2023-02-13T03:57:42.559Z,103735.66
2023-02-13T04:00:12.588Z,103737.13
2023-02-13T04:03:13.942Z,103747.63
2023-02-13T04:05:45.148Z,103731.50
2023-02-13T04:08:12.077Z,103738.56
2023-02-13T04:10:50.412Z,103735.03
2023-02-13T04:13:26.928Z,103735.03
2023-02-13T04:16:02.978Z,103736.03
2023-02-13T04:18:32.117Z,103738.00
2023-02-13T04:21:06.071Z,103735.66
2023-02-13T04:23:32.751Z,103738.63
2023-02-13T04:26:02.269Z,103737.91
2023-02-13T04:28:29.026Z,103736.19
2023-02-13T04:30:55.836Z,103736.56
2023-02-13T04:33:22.828Z,103728.59
2023-02-13T04:35:49.405Z,103727.88
2023-02-13T04:38:15.890Z,103742.28
2023-02-13T04:40:42.374Z,103736.91
2023-02-13T04:43:08.775Z,103738.38
2023-02-13T04:45:35.306Z,103735.22
2023-02-13T04:48:01.692Z,103731.41
2023-02-13T04:50:28.125Z,103734.69
2023-02-13T04:52:56.041Z,103725.63
2023-02-13T04:55:26.657Z,103725.50
2023-02-13T04:57:54.007Z,103720.88
2023-02-13T05:00:22.385Z,103726.13
2023-02-13T05:02:48.912Z,103730.66
2023-02-13T05:05:15.453Z,103724.66
2023-02-13T05:07:42.756Z,103715.84
2023-02-13T05:10:10.676Z,103716.13
2023-02-13T05:12:37.218Z,103709.75
2023-02-13T05:15:05.349Z,103705.09
2023-02-13T05:17:32.093Z,103711.47
2023-02-13T05:19:59.890Z,103708.50
2023-02-13T05:22:44.941Z,103710.25
2023-02-13T05:25:11.321Z,103709.38
2023-02-13T05:27:37.770Z,103704.88
2023-02-13T05:30:04.723Z,103697.88
2023-02-13T05:32:31.121Z,103701.97
2023-02-13T05:34:57.491Z,103700.13
2023-02-13T05:37:23.862Z,103705.63
2023-02-13T05:39:50.286Z,103700.00
2023-02-13T05:42:16.917Z,103706.81
2023-02-13T05:44:43.388Z,103701.69
2023-02-13T05:47:09.840Z,103703.66
2023-02-13T05:49:36.267Z,103702.81
2023-02-13T05:52:02.736Z,103705.25
2023-02-13T05:54:29.122Z,103702.41
2023-02-13T05:56:55.645Z,103708.50
2023-02-13T05:59:23.930Z,103705.72
2023-02-13T06:01:50.557Z,103699.50
2023-02-13T06:04:17.161Z,103701.44
2023-02-13T06:06:44.829Z,103700.56
2023-02-13T06:09:11.356Z,103704.88
2023-02-13T06:11:37.866Z,103706.97
2023-02-13T06:14:04.413Z,103704.41
2023-02-13T06:16:34.589Z,103704.28
2023-02-13T06:19:01.026Z,103704.88
2023-02-13T06:21:27.480Z,103709.03
2023-02-13T06:23:53.894Z,103703.66
2023-02-13T06:26:20.372Z,103704.53
2023-02-13T06:28:46.837Z,103708.19
2023-02-13T06:31:13.439Z,103710.88
2023-02-13T06:33:39.929Z,103707.47
2023-02-13T06:36:06.846Z,103712.09
2023-02-13T06:38:33.367Z,103712.94
2023-02-13T06:41:02.039Z,103715.28
2023-02-13T06:43:28.575Z,103718.41
2023-02-13T06:45:55.039Z,103717.19
2023-02-13T06:48:21.812Z,103725.13
2023-02-13T06:50:48.404Z,103725.72
2023-02-13T06:53:14.883Z,103716.66
2023-02-13T06:55:41.253Z,103721.59
2023-02-13T06:58:07.713Z,103723.28
2023-02-13T07:00:34.188Z,103723.28
2023-02-13T07:03:06.346Z,103728.94
2023-02-13T07:05:33.427Z,103730.66
2023-02-13T07:07:59.852Z,103738.19
2023-02-13T07:10:26.385Z,103731.56
2023-02-13T07:13:04.937Z,103730.44
2023-02-13T07:15:33.340Z,103737.53
2023-02-13T07:18:00.124Z,103734.72
2023-02-13T07:20:27.766Z,103738.63
2023-02-13T07:22:58.196Z,103741.47
2023-02-13T07:25:24.660Z,103736.56
2023-02-13T07:27:51.088Z,103742.94
2023-02-13T07:30:17.718Z,103741.19
2023-02-13T07:32:44.205Z,103735.81
2023-02-13T07:35:10.975Z,103734.09
2023-02-13T07:37:37.449Z,103730.56
2023-02-13T07:40:06.478Z,103739.25
2023-02-13T07:42:34.812Z,103728.22
2023-02-13T07:45:01.577Z,103729.66
2023-02-13T07:47:28.021Z,103732.22
2023-02-13T07:49:54.770Z,103735.63
2023-02-13T07:52:21.265Z,103738.19
2023-02-13T07:54:48.106Z,103729.88
2023-02-13T07:57:16.261Z,103747.31
2023-02-13T07:59:43.257Z,103745.94
2023-02-13T08:02:14.478Z,103750.19
2023-02-13T08:04:41.896Z,103747.13
2023-02-13T08:07:08.408Z,103750.53
2023-02-13T08:09:53.361Z,103752.94
2023-02-13T08:12:19.845Z,103758.78
2023-02-13T08:14:46.356Z,103756.84
2023-02-13T08:17:13.277Z,103766.19
2023-02-13T08:19:40.278Z,103768.34
2023-02-13T08:22:06.686Z,103770.53
2023-02-13T08:24:33.586Z,103767.00
2023-02-13T08:27:00.014Z,103764.38
2023-02-13T08:29:26.450Z,103762.69
2023-02-13T08:31:52.959Z,103765.72
2023-02-13T08:34:19.588Z,103768.69
2023-02-13T08:36:46.077Z,103760.94
2023-02-13T08:39:12.612Z,103769.91
2023-02-13T08:41:39.206Z,103772.19
2023-02-13T08:44:05.647Z,103763.97
2023-02-13T08:46:32.282Z,103764.53
2023-02-13T08:48:58.826Z,103764.25
2023-02-13T08:51:25.293Z,103765.09
2023-02-13T08:53:51.732Z,103764.69
2023-02-13T08:56:18.461Z,103767.69
2023-02-13T08:58:48.406Z,103774.22
2023-02-13T09:01:14.898Z,103766.28
2023-02-13T09:03:41.338Z,103758.91
2023-02-13T09:06:07.820Z,103760.06
2023-02-13T09:08:37.408Z,103761.03
2023-02-13T09:11:06.436Z,103760.06
2023-02-13T09:13:34.448Z,103755.50
2023-02-13T09:16:02.294Z,103756.13
2023-02-13T09:18:29.038Z,103759.22
2023-02-13T09:21:18.478Z,103757.97
2023-02-13T09:23:45.034Z,103758.78
2023-02-13T09:26:13.654Z,103762.69
2023-02-13T09:28:41.167Z,103760.25
2023-02-13T09:31:15.817Z,103762.28
2023-02-13T09:33:43.182Z,103761.91
2023-02-13T09:36:15.454Z,103758.34
2023-02-13T09:38:44.112Z,103758.34
2023-02-13T09:41:23.927Z,103759.34
2023-02-13T09:44:33.774Z,103758.91
2023-02-13T09:47:25.409Z,103754.06
2023-02-13T09:50:10.918Z,103755.19
2023-02-13T09:52:38.962Z,103756.69
2023-02-13T09:55:37.461Z,103761.25
2023-02-13T09:58:16.391Z,103755.59
2023-02-13T10:00:46.311Z,103749.44
2023-02-13T10:03:26.978Z,103756.50
2023-02-13T10:06:12.541Z,103757.75
2023-02-13T10:08:57.838Z,103759.38
2023-02-13T10:11:58.434Z,103762.94
2023-02-13T10:14:43.801Z,103766.63
2023-02-13T10:17:21.032Z,103755.06
2023-02-13T10:19:55.068Z,103764.50
2023-02-13T10:22:50.473Z,103757.38
2023-02-13T10:25:25.095Z,103761.41
2023-02-13T10:27:58.870Z,103758.09
2023-02-13T10:30:32.233Z,103757.25
2023-02-13T10:33:18.961Z,103756.63
2023-02-13T10:36:16.214Z,103751.47
2023-02-13T10:38:57.916Z,103753.41
2023-02-13T10:41:25.768Z,103748.75
2023-02-13T10:44:01.512Z,103746.56
2023-02-13T10:46:51.511Z,103745.41
2023-02-13T10:49:20.749Z,103741.31
2023-02-13T10:52:17.111Z,103742.97
2023-02-13T10:54:49.520Z,103737.09
2023-02-13T10:57:26.294Z,103736.25
2023-02-13T11:00:22.302Z,103735.28
2023-02-13T11:02:48.876Z,103733.53
2023-02-13T11:05:22.412Z,103738.41
2023-02-13T11:07:49.561Z,103734.38
2023-02-13T11:10:20.943Z,103727.56
2023-02-13T11:12:48.047Z,103723.69
2023-02-13T11:15:23.877Z,103724.84
2023-02-13T11:17:50.846Z,103720.41
2023-02-13T11:20:28.594Z,103720.25
2023-02-13T11:22:56.244Z,103715.50
2023-02-13T11:25:26.559Z,103709.34
2023-02-13T11:28:09.968Z,103712.34
2023-02-13T11:30:37.714Z,103706.38
2023-02-13T11:33:20.976Z,103713.06
2023-02-13T11:35:48.426Z,103715.44
2023-02-13T11:38:20.971Z,103707.75
2023-02-13T11:40:51.446Z,103703.06
2023-02-13T11:43:30.079Z,103699.97
2023-02-13T11:46:23.735Z,103705.13
2023-02-13T11:48:59.345Z,103693.75
2023-02-13T11:51:50.693Z,103689.63
2023-02-13T11:54:24.588Z,103694.59
2023-02-13T11:57:08.841Z,103692.22
2023-02-13T11:59:44.264Z,103690.69
2023-02-13T12:02:27.480Z,103677.03
2023-02-13T12:05:21.963Z,103673.34
2023-02-13T12:07:49.449Z,103674.53
2023-02-13T12:10:18.723Z,103670.47
2023-02-13T12:13:14.008Z,103671.56
2023-02-13T12:15:41.588Z,103668.09
2023-02-13T12:18:27.371Z,103666.81
2023-02-13T12:21:14.841Z,103663.13
2023-02-13T12:23:44.086Z,103668.88
2023-02-13T12:26:37.048Z,103677.00
2023-02-13T12:29:25.068Z,103664.13
2023-02-13T12:32:18.898Z,103656.53
2023-02-13T12:35:34.898Z,103657.03
2023-02-13T12:38:11.605Z,103663.44
2023-02-13T12:40:58.159Z,103662.31
2023-02-13T12:43:24.809Z,103668.97
2023-02-13T12:46:02.701Z,103659.06
2023-02-13T12:48:32.158Z,103655.69
2023-02-13T12:51:51.005Z,103644.34
2023-02-13T12:54:52.365Z,103652.72
2023-02-13T12:57:36.577Z,103653.38
2023-02-13T13:00:12.088Z,103649.41
2023-02-13T13:02:47.717Z,103640.81
2023-02-13T13:05:18.357Z,103642.38
2023-02-13T13:08:23.710Z,103635.56
2023-02-13T13:11:12.019Z,103633.72
2023-02-13T13:13:55.148Z,103625.25
2023-02-13T13:16:36.219Z,103618.81
2023-02-13T13:19:31.716Z,103614.41
2023-02-13T13:22:05.593Z,103613.56
2023-02-13T13:25:10.717Z,103613.38
2023-02-13T13:27:44.311Z,103608.47
2023-02-13T13:30:29.556Z,103596.09
2023-02-13T13:33:15.521Z,103595.94
2023-02-13T13:35:47.943Z,103597.78
2023-02-13T13:38:51.895Z,103592.19
2023-02-13T13:41:26.771Z,103589.59
2023-02-13T13:44:11.330Z,103586.91
2023-02-13T13:47:02.761Z,103584.88
2023-02-13T13:49:53.573Z,103583.16
2023-02-13T13:52:33.047Z,103582.00
2023-02-13T13:55:02.667Z,103584.88
2023-02-13T13:57:41.470Z,103577.59
2023-02-13T14:00:14.182Z,103584.38
2023-02-13T14:02:45.267Z,103589.78
2023-02-13T14:05:58.750Z,103573.69
2023-02-13T14:08:37.167Z,103579.47
2023-02-13T14:11:03.865Z,103569.09
2023-02-13T14:13:34.634Z,103568.59
2023-02-13T14:16:02.568Z,103567.72
2023-02-13T14:18:30.183Z,103562.63
2023-02-13T14:21:00.429Z,103562.81
2023-02-13T14:23:29.820Z,103556.72
2023-02-13T14:26:14.967Z,103559.44
2023-02-13T14:28:50.582Z,103562.84
2023-02-13T14:31:28.619Z,103558.88
2023-02-13T14:34:01.983Z,103555.31
2023-02-13T14:36:35.322Z,103557.38
2023-02-13T14:39:25.818Z,103554.50
2023-02-13T14:41:54.812Z,103557.56
2023-02-13T14:44:32.198Z,103549.75
2023-02-13T14:47:01.713Z,103555.34
2023-02-13T14:49:31.670Z,103555.03
2023-02-13T14:52:01.890Z,103551.66
2023-02-13T14:54:36.315Z,103549.06
2023-02-13T14:57:26.477Z,103548.22
2023-02-13T14:59:59.217Z,103541.63
2023-02-13T15:02:35.207Z,103536.72
2023-02-13T15:05:05.847Z,103534.66
2023-02-13T15:07:36.497Z,103537.72
2023-02-13T15:10:25.601Z,103539.41
2023-02-13T15:12:59.395Z,103538.06
2023-02-13T15:15:35.234Z,103543.00
2023-02-13T15:18:07.687Z,103545.19
2023-02-13T15:20:36.677Z,103541.66
2023-02-13T15:23:06.660Z,103548.75
2023-02-13T15:25:36.775Z,103547.75
2023-02-13T15:28:05.989Z,103545.91
2023-02-13T15:30:38.018Z,103543.50
2023-02-13T15:33:26.571Z,103540.78
2023-02-13T15:35:59.153Z,103536.38
2023-02-13T15:38:29.102Z,103531.63
2023-02-13T15:41:01.796Z,103538.41
2023-02-13T15:43:35.710Z,103535.72
2023-02-13T15:46:08.513Z,103527.75
2023-02-13T15:48:35.647Z,103527.56
2023-02-13T15:51:03.105Z,103533.66
2023-02-13T15:53:30.409Z,103528.88
2023-02-13T15:56:02.949Z,103517.53
2023-02-13T15:58:32.578Z,103517.69
2023-02-13T16:01:06.230Z,103523.47
2023-02-13T16:03:34.644Z,103531.94
2023-02-13T16:06:01.473Z,103527.16
2023-02-13T16:08:35.949Z,103524.09
2023-02-13T16:11:38.793Z,103533.59
2023-02-13T16:14:14.293Z,103532.53
2023-02-13T16:17:01.904Z,103536.59
2023-02-13T16:19:54.779Z,103532.84
2023-02-13T16:22:37.053Z,103524.69
2023-02-13T16:25:12.538Z,103521.94
2023-02-13T16:27:55.287Z,103527.97
2023-02-13T16:30:26.157Z,103529.97
2023-02-13T16:33:09.654Z,103536.34
2023-02-13T16:35:39.235Z,103529.47
2023-02-13T16:38:23.550Z,103530.41
2023-02-13T16:40:49.951Z,103532.06
2023-02-13T16:43:35.126Z,103525.13
2023-02-13T16:46:19.669Z,103524.06
2023-02-13T16:48:48.084Z,103525.84
2023-02-13T16:51:16.666Z,103526.94
2023-02-13T16:53:43.373Z,103524.84
2023-02-13T16:56:11.333Z,103525.63
2023-02-13T16:58:37.843Z,103526.69
2023-02-13T17:01:05.330Z,103526.91
2023-02-13T17:03:32.814Z,103536.13
2023-02-13T17:06:03.234Z,103534.16
2023-02-13T17:08:30.534Z,103532.97
2023-02-13T17:11:06.715Z,103534.88
2023-02-13T17:13:34.107Z,103543.53
2023-02-13T17:16:00.498Z,103544.72
2023-02-13T17:18:27.464Z,103549.31
2023-02-13T17:20:54.563Z,103547.09
2023-02-13T17:23:23.464Z,103555.34
2023-02-13T17:25:51.986Z,103552.81
2023-02-13T17:28:21.321Z,103550.31
2023-02-13T17:30:50.867Z,103543.22
2023-02-13T17:33:23.011Z,103549.34
2023-02-13T17:35:49.547Z,103537.56
2023-02-13T17:38:15.993Z,103539.00
2023-02-13T17:40:44.035Z,103545.22
2023-02-13T17:43:12.518Z,103544.66
2023-02-13T17:45:39.884Z,103539.97
2023-02-13T17:48:06.718Z,103544.22
2023-02-13T17:50:34.797Z,103542.91
2023-02-13T17:53:16.473Z,103538.66
2023-02-13T17:55:42.906Z,103544.63
2023-02-13T17:58:09.351Z,103539.50
2023-02-13T18:00:35.971Z,103544.44
2023-02-13T18:03:03.033Z,103539.19
2023-02-13T18:05:31.084Z,103536.31
2023-02-13T18:07:57.564Z,103538.56
2023-02-13T18:10:26.805Z,103538.84
2023-02-13T18:12:55.340Z,103535.41
2023-02-13T18:15:22.128Z,103539.38
2023-02-13T18:17:49.022Z,103536.13
2023-02-13T18:20:18.375Z,103538.38
2023-02-13T18:22:45.239Z,103543.28
2023-02-13T18:25:12.474Z,103541.28
2023-02-13T18:27:39.073Z,103541.22
2023-02-13T18:30:06.506Z,103551.25
2023-02-13T18:32:33.133Z,103546.00
2023-02-13T18:34:59.888Z,103540.50
2023-02-13T18:37:29.323Z,103551.53
2023-02-13T18:39:56.194Z,103543.22
2023-02-13T18:42:22.869Z,103535.66
2023-02-13T18:44:49.327Z,103539.91
2023-02-13T18:47:15.776Z,103545.03
2023-02-13T18:49:42.189Z,103542.47
2023-02-13T18:52:08.722Z,103547.16
2023-02-13T18:54:35.787Z,103539.25
2023-02-13T18:57:02.257Z,103546.31
2023-02-13T18:59:28.653Z,103547.78
2023-02-13T19:01:55.159Z,103550.47
2023-02-13T19:04:21.942Z,103548.28
2023-02-13T19:06:48.347Z,103540.31
2023-02-13T19:09:14.789Z,103544.59
2023-02-13T19:11:42.661Z,103542.03
2023-02-13T19:14:12.445Z,103542.31
2023-02-13T19:16:38.924Z,103538.91
2023-02-13T19:19:07.752Z,103529.75
2023-02-13T19:21:36.589Z,103534.72
2023-02-13T19:24:06.112Z,103526.25
2023-02-13T19:26:32.598Z,103518.09
2023-02-13T19:28:59.143Z,103522.50
2023-02-13T19:31:28.404Z,103523.22
2023-02-13T19:33:55.244Z,103518.56
2023-02-13T19:36:24.353Z,103518.56
2023-02-13T19:38:55.842Z,103517.34
2023-02-13T19:41:23.254Z,103519.03
2023-02-13T19:43:51.182Z,103531.41
2023-02-13T19:46:20.657Z,103530.78
2023-02-13T19:48:47.189Z,103533.34
2023-02-13T19:51:16.241Z,103529.72
2023-02-13T19:53:42.764Z,103530.56
2023-02-13T19:56:10.305Z,103529.44
2023-02-13T19:58:38.062Z,103518.56
2023-02-13T20:01:21.662Z,103523.28
2023-02-13T20:03:49.063Z,103522.31
2023-02-13T20:06:23.098Z,103524.53
2023-02-13T20:08:50.349Z,103521.88
2023-02-13T20:11:18.933Z,103517.78
2023-02-13T20:13:45.336Z,103522.09
2023-02-13T20:16:15.069Z,103532.69
2023-02-13T20:18:42.423Z,103524.06
2023-02-13T20:21:11.605Z,103535.41
2023-02-13T20:23:38.178Z,103544.19
2023-02-13T20:26:11.383Z,103546.63
2023-02-13T20:28:38.201Z,103541.25
2023-02-13T20:31:12.750Z,103542.19
2023-02-13T20:33:40.087Z,103542.78
2023-02-13T20:36:21.638Z,103540.31
2023-02-13T20:38:50.271Z,103542.25
2023-02-13T20:41:19.204Z,103541.72
2023-02-13T20:43:45.987Z,103543.91
2023-02-13T20:46:13.400Z,103535.13
2023-02-13T20:48:40.556Z,103542.75
2023-02-13T20:51:11.555Z,103546.41
2023-02-13T20:53:39.404Z,103547.66
2023-02-13T20:56:14.401Z,103550.97
2023-02-13T20:58:42.468Z,103553.53
2023-02-13T21:01:20.720Z,103555.22
2023-02-13T21:03:53.446Z,103551.81
2023-02-13T21:06:21.437Z,103554.00
2023-02-13T21:08:48.247Z,103554.91
2023-02-13T21:11:14.973Z,103556.06
2023-02-13T21:13:41.394Z,103548.69
2023-02-13T21:16:10.930Z,103551.81
2023-02-13T21:18:38.454Z,103563.06
2023-02-13T21:21:05.405Z,103556.88
2023-02-13T21:23:32.259Z,103566.63
2023-02-13T21:26:13.045Z,103568.09
2023-02-13T21:28:40.489Z,103568.34
2023-02-13T21:31:14.007Z,103568.47
2023-02-13T21:33:40.653Z,103559.19
2023-02-13T21:36:09.485Z,103561.63
2023-02-13T21:38:37.142Z,103553.41
2023-02-13T21:41:04.762Z,103559.72
2023-02-13T21:43:31.463Z,103550.84
2023-02-13T21:46:08.297Z,103557.25
2023-02-13T21:48:34.849Z,103560.03
2023-02-13T21:51:05.884Z,103555.75
2023-02-13T21:53:32.601Z,103552.56
2023-02-13T21:56:01.941Z,103556.22
2023-02-13T21:58:28.787Z,103551.84
2023-02-13T22:00:55.215Z,103551.94
2023-02-13T22:03:21.649Z,103553.97
2023-02-13T22:05:48.490Z,103552.59
2023-02-13T22:08:14.886Z,103548.34
2023-02-13T22:10:41.290Z,103547.16
2023-02-13T22:13:07.700Z,103552.72
2023-02-13T22:15:34.224Z,103548.56
2023-02-13T22:18:00.714Z,103551.97
2023-02-13T22:20:27.219Z,103547.94
2023-02-13T22:22:53.600Z,103550.72
2023-02-13T22:25:21.030Z,103543.78
2023-02-13T22:27:47.742Z,103537.38
2023-02-13T22:30:15.371Z,103543.66
2023-02-13T22:32:42.221Z,103540.16
2023-02-13T22:35:09.585Z,103538.50
2023-02-13T22:37:36.986Z,103538.63
2023-02-13T22:40:04.765Z,103538.22
2023-02-13T22:42:31.222Z,103540.53
2023-02-13T22:44:57.668Z,103530.31
2023-02-13T22:47:24.120Z,103531.47
2023-02-13T22:49:50.544Z,103524.44
2023-02-13T22:52:16.924Z,103526.38
2023-02-13T22:54:43.302Z,103522.91
2023-02-13T22:57:09.713Z,103521.22
2023-02-13T22:59:39.883Z,103526.75
2023-02-13T23:02:06.684Z,103531.34
2023-02-13T23:04:33.157Z,103530.72
2023-02-13T23:06:59.594Z,103527.41
2023-02-13T23:09:26.038Z,103522.16
2023-02-13T23:12:11.140Z,103522.25
2023-02-13T23:14:37.595Z,103527.19
2023-02-13T23:17:22.734Z,103523.69
2023-02-13T23:19:49.174Z,103518.34
2023-02-13T23:22:16.214Z,103521.84
2023-02-13T23:24:42.664Z,103524.53
2023-02-13T23:27:09.185Z,103527.81
2023-02-13T23:29:35.752Z,103532.09
2023-02-13T23:32:02.302Z,103527.25
2023-02-13T23:34:28.814Z,103528.63
2023-02-13T23:36:55.197Z,103532.22
2023-02-13T23:39:21.668Z,103523.25
2023-02-13T23:41:48.109Z,103522.28
2023-02-13T23:44:14.521Z,103523.25
2023-02-13T23:46:40.953Z,103523.25
2023-02-13T23:49:07.663Z,103531.47
2023-02-13T23:51:34.151Z,103520.13
2023-02-13T23:54:00.566Z,103516.91
2023-02-13T23:56:27.049Z,103514.75
2023-02-13T23:58:56.041Z,103523.78
